aviador You're here:

EHGR Decoded Metar

GILZE-RIJEN in NETHERLANDS
Report Time2018-02-21 20:55:00
UTC Time2018-02-21 21:18:02
Flight Rules vfr VFR
Wind030° at 06 kt
W.Decomp.*RWY 02: 5.9 kt HW 1.1 kt RCW
RWY 10: 2.2 kt HW 5.6 kt LCW
W.Rank030° ranks 14
Current wind is above 030° avg. (5.5)
Visibility8000 m
Phenomena:Haze
Clouds:N/A
Expected CloudBase > 800 ft AGL from Temp-Dew spread
CeilingNone
Temp-3°C (ISA -18)
Dew Point-5°C (86% RH)
AAT-7.8°C
QNH1025 hPa
Density Alt-2,513 ft
Elevation43 ft
Report Wrong Elevation
Raw Report
EHGR 212055Z AUTO 03006KT 360V060 8000 HZ NCD M03/M05 Q1025
BLU=

Extra information for EHGR:More info

Metar Taf Metar & Taf Last 4 Metars F.Rules Stats Wind Profile Meteogram Temp Stats Airport Information Weather charts Add Link Nearby VenuesMetar ALERT Operation Metar Decoded Social comments